Pioneertown, California
Current Conditions -  °F | °C
As of 11:35 AM on Saturday 25 Oct 2014 (Local Time) from KL35 Reporting Station
Clear Clear  
Wind Chill: 59°   Ceiling: Unl
Heat Index: 59°   Visibility: 10mi
Dew Point: 37°   Wind: 7mph
Humidity: 45%   Direction: 230°SW
Pressure: 30.3"   Gusts: 21mph
Location:  34.16°N, 116.5°W
Report Text: KL35 251835Z AUTO 23006G18KT 10SM CLR 15/03 A3030 RMK AO2
Loading
Personal Weather Stations






























Interactive Weather Map
Tropical Storm Tracking
New forecast layout! Learn more

10-Day Weather Forecast

Advertisements
Track Severe Weather on mobile